Time;durP1;ratioP1;P1;durP2;ratioP2;P2;SDS_P1;SDS_P2;PMS_P1;PMS_P2;Temp;Humidity;BMP_temperature;BMP_pressure;BME280_temperature;BME280_humidity;BME280_pressure;Samples;Min_cycle;Max_cycle;Signal;HPM_P1;HPM_P2
2022/05/19 00:00:32;;;;;;;6.35;4.40;;;;;25.30;101663.00;;;;5082325;28;20210;-78
2022/05/19 00:02:59;;;;;;;6.07;4.43;;;;;25.30;101647.00;;;;5080835;28;20198;-77
2022/05/19 00:05:27;;;;;;;7.78;4.15;;;;;25.30;101651.00;;;;5070180;28;20199;-77
2022/05/19 00:07:55;;;;;;;5.47;4.50;;;;;25.30;101649.00;;;;5085632;28;20212;-78
2022/05/19 00:10:22;;;;;;;11.25;5.00;;;;;25.30;101642.00;;;;5086514;28;20230;-77
2022/05/19 00:12:49;;;;;;;5.97;4.60;;;;;25.30;101637.00;;;;5088138;28;21001;-77
2022/05/19 00:15:16;;;;;;;6.20;4.72;;;;;25.30;101637.00;;;;5082619;28;20202;-78
2022/05/19 00:17:43;;;;;;;6.32;4.13;;;;;25.30;101632.00;;;;5084579;28;20199;-77
2022/05/19 00:20:11;;;;;;;5.00;4.05;;;;;25.30;101622.00;;;;5087666;28;20840;-78
2022/05/19 00:22:40;;;;;;;5.88;4.28;;;;;25.20;101618.00;;;;5085588;28;20584;-77
2022/05/19 00:25:08;;;;;;;5.63;3.95;;;;;25.30;101614.00;;;;5086809;28;20240;-77
2022/05/19 00:27:35;;;;;;;6.45;4.57;;;;;25.30;101607.00;;;;5090719;28;20206;-77
2022/05/19 00:30:03;;;;;;;8.65;4.65;;;;;25.30;101614.00;;;;5089947;28;20765;-77
2022/05/19 00:32:30;;;;;;;7.45;4.57;;;;;25.30;101613.00;;;;5080650;28;20194;-77
2022/05/19 00:34:57;;;;;;;5.25;4.28;;;;;25.30;101605.00;;;;5086410;28;20288;-77
2022/05/19 00:37:25;;;;;;;5.53;4.68;;;;;25.30;101608.00;;;;5088969;28;20195;-77
2022/05/19 00:39:53;;;;;;;6.32;4.65;;;;;25.30;101608.00;;;;5086935;28;20226;-77
2022/05/19 00:45:07;;;;;;;6.05;4.03;;;;;25.30;101607.00;;;;5087508;28;20202;-77
2022/05/19 00:47:38;;;;;;;4.72;3.35;;;;;25.30;101605.00;;;;5090066;28;20571;-77
2022/05/19 00:50:08;;;;;;;6.07;3.28;;;;;25.30;101609.00;;;;5076656;28;20222;-77
2022/05/19 00:52:39;;;;;;;3.70;3.00;;;;;25.20;101601.00;;;;5090342;28;20210;-77
2022/05/19 00:55:12;;;;;;;3.63;3.10;;;;;25.20;101594.00;;;;5084808;28;20317;-77
2022/05/19 00:57:46;;;;;;;4.68;3.38;;;;;25.20;101597.00;;;;5091032;28;20204;-77
2022/05/19 01:00:17;;;;;;;6.32;4.10;;;;;25.20;101585.00;;;;5089904;28;20194;-77
2022/05/19 01:02:51;;;;;;;4.38;3.95;;;;;25.20;101582.00;;;;5087409;28;20198;-77
2022/05/19 01:05:23;;;;;;;5.50;3.58;;;;;25.20;101582.00;;;;5084221;28;20260;-77
2022/05/19 01:07:55;;;;;;;5.63;3.67;;;;;25.10;101571.00;;;;5076560;28;20202;-78
2022/05/19 01:10:24;;;;;;;6.45;3.50;;;;;25.10;101577.00;;;;5076847;28;21053;-77
2022/05/19 01:12:53;;;;;;;3.90;3.08;;;;;25.10;101564.00;;;;5088847;28;20202;-77
2022/05/19 01:15:22;;;;;;;3.75;3.22;;;;;25.10;101561.00;;;;5089120;28;20290;-78
2022/05/19 01:17:50;;;;;;;6.43;3.72;;;;;25.10;101561.00;;;;5087024;28;20664;-77
2022/05/19 01:20:21;;;;;;;4.78;3.50;;;;;25.10;101555.00;;;;5089376;28;20213;-77
2022/05/19 01:22:57;;;;;;;3.72;3.03;;;;;25.00;101548.00;;;;5089435;28;20205;-78
2022/05/19 01:25:36;;;;;;;4.90;3.92;;;;;25.00;101548.00;;;;5082195;28;20194;-78
2022/05/19 01:28:06;;;;;;;4.47;4.07;;;;;25.00;101542.00;;;;5087704;28;20271;-78
2022/05/19 01:30:33;;;;;;;6.57;4.68;;;;;25.00;101534.00;;;;5089732;28;20222;-78
2022/05/19 01:33:01;;;;;;;6.45;4.03;;;;;25.00;101527.00;;;;5088727;28;20205;-78
2022/05/19 01:35:33;;;;;;;6.13;4.53;;;;;25.00;101518.00;;;;5080669;28;20207;-78
2022/05/19 01:38:01;;;;;;;6.95;5.03;;;;;25.00;101516.00;;;;5087075;28;20206;-78
2022/05/19 01:40:48;;;;;;;7.38;4.68;;;;;24.90;101512.00;;;;5087727;28;20312;-78
2022/05/19 01:43:24;;;;;;;5.82;5.05;;;;;25.00;101505.00;;;;5087325;28;20194;-78
2022/05/19 01:46:02;;;;;;;5.47;4.72;;;;;25.00;101516.00;;;;5085433;28;20206;-78
2022/05/19 01:48:37;;;;;;;6.88;4.70;;;;;25.10;101509.00;;;;5085030;28;20194;-78
2022/05/19 01:51:11;;;;;;;5.70;4.40;;;;;25.10;101511.00;;;;5088546;28;20217;-77
2022/05/19 01:53:46;;;;;;;5.95;4.30;;;;;25.10;101514.00;;;;5086123;28;20198;-78
2022/05/19 01:56:20;;;;;;;5.30;4.28;;;;;25.10;101518.00;;;;5084650;28;20703;-78
2022/05/19 01:58:55;;;;;;;5.03;3.67;;;;;25.20;101523.00;;;;5088368;28;20206;-78
2022/05/19 02:01:27;;;;;;;3.97;3.40;;;;;25.20;101522.00;;;;5084125;28;20213;-77
2022/05/19 02:04:01;;;;;;;3.95;2.53;;;;;25.20;101518.00;;;;5087490;28;20826;-78
2022/05/19 02:06:33;;;;;;;5.20;3.22;;;;;25.20;101524.00;;;;5087790;28;20244;-78
2022/05/19 02:09:03;;;;;;;5.63;3.42;;;;;25.20;101512.00;;;;5086337;28;20321;-78
2022/05/19 02:11:34;;;;;;;4.45;3.42;;;;;25.20;101507.00;;;;5086928;28;20600;-78
2022/05/19 02:14:07;;;;;;;5.45;3.40;;;;;25.20;101508.00;;;;5087637;28;20198;-78
2022/05/19 02:16:35;;;;;;;3.40;2.90;;;;;25.20;101498.00;;;;5085939;28;20190;-78
2022/05/19 02:19:03;;;;;;;3.95;3.47;;;;;25.20;101494.00;;;;5086625;28;20193;-78
2022/05/19 02:21:31;;;;;;;6.32;4.20;;;;;25.20;101495.00;;;;5087363;28;20214;-78
2022/05/19 02:24:01;;;;;;;6.88;4.25;;;;;25.10;101494.00;;;;5084679;28;20212;-78
2022/05/19 02:26:32;;;;;;;6.90;5.75;;;;;25.10;101494.00;;;;5086148;28;20198;-78
2022/05/19 02:29:06;;;;;;;6.13;4.80;;;;;25.10;101494.00;;;;5085655;28;20205;-77
2022/05/19 02:31:33;;;;;;;9.98;5.40;;;;;25.10;101499.00;;;;5088116;28;20221;-77
2022/05/19 02:34:00;;;;;;;5.10;4.28;;;;;25.10;101495.00;;;;5084876;28;20210;-78
2022/05/19 02:36:28;;;;;;;5.53;4.40;;;;;25.10;101496.00;;;;5086767;28;20201;-77
2022/05/19 02:38:55;;;;;;;9.30;6.30;;;;;25.10;101496.00;;;;5084581;28;20202;-77
2022/05/19 02:41:22;;;;;;;8.27;6.78;;;;;25.10;101499.00;;;;5083082;28;20237;-77
2022/05/19 02:43:49;;;;;;;8.25;6.22;;;;;25.10;101502.00;;;;5080381;28;20205;-78
2022/05/19 02:46:18;;;;;;;10.23;6.95;;;;;25.10;101506.00;;;;5083533;28;20199;-78
2022/05/19 02:48:45;;;;;;;9.13;6.43;;;;;25.20;101502.00;;;;5078652;28;20226;-78
2022/05/19 02:51:13;;;;;;;8.48;7.07;;;;;25.10;101515.00;;;;5086737;28;20226;-77
2022/05/19 02:53:40;;;;;;;8.38;7.00;;;;;25.20;101522.00;;;;5087265;28;20186;-77
2022/05/19 02:56:08;;;;;;;12.07;7.95;;;;;25.20;101535.00;;;;5085857;28;20217;-78
2022/05/19 02:58:35;;;;;;;12.20;7.60;;;;;25.20;101554.00;;;;5088173;28;20190;-78
2022/05/19 03:01:02;;;;;;;9.65;7.10;;;;;25.20;101693.00;;;;5087179;28;21076;-78
2022/05/19 03:03:32;;;;;;;13.75;8.60;;;;;25.10;101726.00;;;;5077534;28;20195;-77
2022/05/19 03:05:59;;;;;;;12.73;8.95;;;;;25.20;101709.00;;;;5080243;28;20296;-78
2022/05/19 03:08:26;;;;;;;11.40;9.07;;;;;25.10;101699.00;;;;5087910;28;20318;-77
2022/05/19 03:10:53;;;;;;;14.40;8.73;;;;;25.10;101711.00;;;;5087244;28;20217;-77
2022/05/19 03:13:22;;;;;;;11.90;8.98;;;;;25.10;101717.00;;;;5088135;28;20229;-78
2022/05/19 03:15:50;;;;;;;9.10;7.82;;;;;25.10;101715.00;;;;5086538;28;20194;-77
2022/05/19 03:18:17;;;;;;;9.45;7.38;;;;;25.10;101699.00;;;;5085461;28;20566;-77
2022/05/19 03:20:46;;;;;;;10.18;7.38;;;;;25.10;101689.00;;;;5086890;28;20205;-78
2022/05/19 03:23:14;;;;;;;6.50;5.18;;;;;25.10;101687.00;;;;5087142;28;20202;-78
2022/05/19 03:25:41;;;;;;;5.13;4.45;;;;;25.10;101695.00;;;;5080160;28;20727;-78
2022/05/19 03:28:12;;;;;;;5.72;3.55;;;;;25.10;101684.00;;;;5080837;28;20206;-79
2022/05/19 03:30:39;;;;;;;6.30;3.58;;;;;25.10;101694.00;;;;5081015;28;20222;-80
2022/05/19 03:33:06;;;;;;;4.15;2.70;;;;;25.10;101680.00;;;;5085204;28;20255;-80
2022/05/19 03:35:33;;;;;;;5.13;2.35;;;;;25.00;101676.00;;;;5084356;28;20202;-81
2022/05/19 03:38:02;;;;;;;2.65;1.63;;;;;25.00;101665.00;;;;5086888;28;20194;-81
2022/05/19 03:40:30;;;;;;;1.60;0.90;;;;;24.90;101670.00;;;;5085060;28;20232;-79
2022/05/19 03:42:57;;;;;;;3.95;1.27;;;;;24.90;101668.00;;;;5087870;28;20248;-80
2022/05/19 03:45:25;;;;;;;4.57;1.10;;;;;24.80;101658.00;;;;5085648;28;20213;-81
2022/05/19 03:47:52;;;;;;;2.75;0.82;;;;;24.80;101676.00;;;;5073231;28;20203;-80
2022/05/19 03:50:20;;;;;;;3.10;1.00;;;;;24.70;101691.00;;;;5086031;28;20768;-79
2022/05/19 03:52:47;;;;;;;3.90;0.85;;;;;24.70;101681.00;;;;5087001;28;20206;-79
2022/05/19 03:55:16;;;;;;;1.50;0.90;;;;;24.60;101664.00;;;;5074210;28;20209;-79
2022/05/19 03:57:43;;;;;;;3.30;0.80;;;;;24.60;101676.00;;;;5091055;28;20202;-79
2022/05/19 04:00:12;;;;;;;3.65;0.93;;;;;24.60;101687.00;;;;5088159;28;20283;-79
2022/05/19 04:02:40;;;;;;;1.40;1.08;;;;;24.50;101682.00;;;;5091702;28;20214;-79
2022/05/19 04:05:08;;;;;;;1.15;0.80;;;;;24.50;101679.00;;;;5090431;28;20586;-79
2022/05/19 04:07:37;;;;;;;2.63;1.20;;;;;24.50;101659.00;;;;5085877;28;20199;-79
2022/05/19 04:10:05;;;;;;;1.88;1.13;;;;;24.40;101659.00;;;;5089366;28;20194;-78
2022/05/19 04:12:34;;;;;;;2.67;0.90;;;;;24.40;101655.00;;;;5091181;28;20202;-78
2022/05/19 04:15:03;;;;;;;1.23;0.90;;;;;24.40;101644.00;;;;5088453;28;20732;-78
2022/05/19 04:17:33;;;;;;;2.13;1.02;;;;;24.40;101633.00;;;;5092309;28;20218;-78
2022/05/19 04:20:00;;;;;;;1.40;0.88;;;;;24.40;101634.00;;;;5089403;28;20588;-78
2022/05/19 04:22:28;;;;;;;1.52;0.82;;;;;24.40;101648.00;;;;5090843;28;20273;-80
2022/05/19 04:24:55;;;;;;;1.98;1.20;;;;;24.30;101662.00;;;;5083175;28;20570;-79
2022/05/19 04:27:23;;;;;;;2.47;1.00;;;;;24.30;101653.00;;;;5071603;28;20203;-79
2022/05/19 04:29:51;;;;;;;1.50;1.02;;;;;24.30;101666.00;;;;5079996;28;20277;-79
2022/05/19 04:32:18;;;;;;;2.30;1.40;;;;;24.30;101673.00;;;;5075601;28;20632;-78
2022/05/19 04:34:46;;;;;;;1.85;0.90;;;;;24.30;101689.00;;;;5081593;28;20202;-78
2022/05/19 04:37:13;;;;;;;1.40;1.10;;;;;24.30;101704.00;;;;5087297;28;20206;-79
2022/05/19 04:39:41;;;;;;;1.80;1.15;;;;;24.30;101713.00;;;;5087647;28;20660;-79
2022/05/19 04:42:10;;;;;;;5.13;1.15;;;;;24.20;101711.00;;;;5088591;28;20215;-79
2022/05/19 04:44:38;;;;;;;4.70;1.55;;;;;24.20;101728.00;;;;5080360;28;20205;-79
2022/05/19 04:47:07;;;;;;;1.65;1.10;;;;;24.20;101730.00;;;;5090492;28;20251;-79
2022/05/19 04:49:35;;;;;;;1.98;1.00;;;;;24.20;101742.00;;;;5087347;28;20735;-78
2022/05/19 04:52:03;;;;;;;1.98;1.00;;;;;24.20;101747.00;;;;5087302;28;20218;-79
2022/05/19 04:54:30;;;;;;;2.70;1.33;;;;;24.20;101721.00;;;;5088663;28;20198;-79
2022/05/19 04:56:57;;;;;;;2.05;1.58;;;;;24.20;101707.00;;;;5088820;28;20210;-80
2022/05/19 04:59:24;;;;;;;3.40;1.63;;;;;24.20;101708.00;;;;5081541;28;20199;-79
2022/05/19 05:01:52;;;;;;;1.85;1.20;;;;;24.10;101702.00;;;;5082071;28;20206;-80
2022/05/19 05:04:27;;;;;;;7.30;1.55;;;;;24.10;101715.00;;;;5088009;28;20194;-80
2022/05/19 05:06:54;;;;;;;3.13;1.00;;;;;24.10;101724.00;;;;5073619;28;20199;-80
2022/05/19 05:09:21;;;;;;;3.63;1.05;;;;;24.10;101693.00;;;;5081914;28;20210;-79
2022/05/19 05:11:49;;;;;;;1.90;1.20;;;;;24.10;101694.00;;;;5081865;28;20227;-80
2022/05/19 05:14:18;;;;;;;3.47;1.27;;;;;24.10;101707.00;;;;5070390;28;20229;-80
2022/05/19 05:16:47;;;;;;;3.40;1.60;;;;;24.10;101720.00;;;;5078254;28;20207;-80
2022/05/19 05:19:18;;;;;;;2.85;1.38;;;;;24.10;101688.00;;;;5088182;28;20190;-78
2022/05/19 05:21:47;;;;;;;2.28;1.48;;;;;24.00;101649.00;;;;5089199;28;20194;-80
2022/05/19 05:24:15;;;;;;;2.72;1.27;;;;;24.00;101647.00;;;;5089314;28;20209;-80
2022/05/19 05:26:42;;;;;;;2.40;1.42;;;;;24.00;101664.00;;;;5083559;28;20275;-80
2022/05/19 05:29:10;;;;;;;3.70;1.00;;;;;24.00;101655.00;;;;5085259;28;20198;-79
2022/05/19 05:31:37;;;;;;;2.03;1.15;;;;;24.00;101629.00;;;;5085852;28;20225;-80
2022/05/19 05:34:04;;;;;;;1.48;1.15;;;;;24.00;101631.00;;;;5081745;28;20195;-80
2022/05/19 05:36:32;;;;;;;2.40;1.63;;;;;24.00;101614.00;;;;5077622;28;20198;-81
2022/05/19 05:39:00;;;;;;;5.07;1.50;;;;;24.00;101631.00;;;;5078141;28;20210;-80
2022/05/19 05:41:27;;;;;;;8.05;2.25;;;;;24.00;101627.00;;;;5086611;28;20298;-81
2022/05/19 05:43:55;;;;;;;2.17;1.42;;;;;24.00;101595.00;;;;5087722;28;20213;-80
2022/05/19 05:46:22;;;;;;;2.53;1.75;;;;;24.00;101606.00;;;;5083477;28;20191;-78
2022/05/19 05:48:51;;;;;;;3.83;1.58;;;;;24.00;101593.00;;;;5081303;28;20339;-77
2022/05/19 05:51:18;;;;;;;5.50;2.17;;;;;24.00;101548.00;;;;5082965;28;20222;-79
2022/05/19 05:53:47;;;;;;;3.70;1.20;;;;;24.00;101551.00;;;;5078862;28;20199;-78
2022/05/19 05:56:18;;;;;;;4.30;1.42;;;;;23.90;101583.00;;;;5085477;28;20237;-80
2022/05/19 05:58:46;;;;;;;3.38;1.55;;;;;24.00;101553.00;;;;5086331;28;20225;-79
2022/05/19 06:01:19;;;;;;;2.38;1.23;;;;;23.90;101526.00;;;;5084011;28;20202;-80
2022/05/19 06:03:47;;;;;;;1.75;1.42;;;;;24.00;101483.00;;;;5091958;28;20202;-81
2022/05/19 06:06:14;;;;;;;2.22;1.50;;;;;24.00;101463.00;;;;5090919;28;20577;-82
2022/05/19 06:08:41;;;;;;;3.67;1.40;;;;;24.00;101544.00;;;;5079582;28;20194;-84
2022/05/19 06:11:09;;;;;;;5.30;1.55;;;;;24.00;101559.00;;;;5087455;28;20234;-82
2022/05/19 06:13:38;;;;;;;1.60;1.05;;;;;23.90;101558.00;;;;5095261;28;20206;-82
2022/05/19 06:16:05;;;;;;;1.50;1.15;;;;;24.00;101602.00;;;;5092833;28;20292;-83
2022/05/19 06:18:33;;;;;;;2.70;1.35;;;;;24.00;101589.00;;;;5087818;28;20198;-82
2022/05/19 06:21:00;;;;;;;2.08;1.27;;;;;24.00;101569.00;;;;5094807;28;20202;-82
2022/05/19 06:23:27;;;;;;;1.30;1.20;;;;;24.00;101561.00;;;;5080796;28;20221;-81
2022/05/19 06:25:56;;;;;;;1.58;1.17;;;;;24.10;101550.00;;;;5094513;28;20213;-82
2022/05/19 06:28:23;;;;;;;2.17;1.33;;;;;24.10;101537.00;;;;5077873;28;20661;-82
2022/05/19 06:30:52;;;;;;;2.97;1.60;;;;;24.10;101537.00;;;;5092617;28;20204;-83
2022/05/19 06:33:22;;;;;;;1.85;1.25;;;;;24.20;101525.00;;;;5092085;28;20330;-82
2022/05/19 06:35:49;;;;;;;1.42;1.27;;;;;24.20;101532.00;;;;5090471;28;20206;-83
2022/05/19 06:38:18;;;;;;;1.38;1.20;;;;;24.20;101528.00;;;;5091086;28;20210;-83
2022/05/19 06:40:45;;;;;;;2.78;2.03;;;;;24.30;101539.00;;;;5092031;28;20238;-82
2022/05/19 06:43:14;;;;;;;2.67;1.98;;;;;24.30;101540.00;;;;5095463;28;20194;-83
2022/05/19 06:45:43;;;;;;;1.80;1.30;;;;;24.30;101546.00;;;;5093078;28;20201;-83
2022/05/19 06:48:12;;;;;;;2.08;1.30;;;;;24.30;101537.00;;;;5091548;28;20198;-82
2022/05/19 06:50:40;;;;;;;2.33;1.80;;;;;24.40;101530.00;;;;5085169;28;20196;-81
2022/05/19 06:53:07;;;;;;;1.70;1.60;;;;;24.40;101528.00;;;;5093662;28;20213;-82
2022/05/19 06:55:37;;;;;;;3.05;1.48;;;;;24.50;101534.00;;;;5081798;28;20211;-82
2022/05/19 06:58:05;;;;;;;3.67;1.55;;;;;24.50;101541.00;;;;5071203;28;20286;-83
2022/05/19 07:00:34;;;;;;;3.05;1.60;;;;;24.60;101541.00;;;;5082427;28;20236;-82
2022/05/19 07:03:02;;;;;;;3.13;1.75;;;;;24.60;101551.00;;;;5089415;28;20201;-82
2022/05/19 07:05:32;;;;;;;1.88;1.52;;;;;24.60;101555.00;;;;5092890;28;20198;-83
2022/05/19 07:08:00;;;;;;;1.95;1.20;;;;;24.70;101567.00;;;;5087825;28;20210;-82
2022/05/19 07:10:28;;;;;;;1.95;1.40;;;;;24.70;101560.00;;;;5079358;28;20197;-84
2022/05/19 07:12:56;;;;;;;1.65;1.27;;;;;24.80;101551.00;;;;5087986;28;20222;-83
2022/05/19 07:15:24;;;;;;;4.75;1.83;;;;;24.80;101551.00;;;;5088565;28;20206;-83
2022/05/19 07:17:51;;;;;;;1.77;1.63;;;;;24.90;101556.00;;;;5085958;28;20195;-83
2022/05/19 07:23:08;;;;;;;1.90;1.35;;;;;24.90;101543.00;;;;5089021;28;20213;-83
2022/05/19 07:25:39;;;;;;;1.73;1.17;;;;;25.00;101537.00;;;;5086416;28;20201;-83
2022/05/19 07:28:08;;;;;;;2.80;1.77;;;;;25.10;101550.00;;;;5088400;28;20277;-82
2022/05/19 07:30:35;;;;;;;3.92;2.03;;;;;25.10;101560.00;;;;5090234;28;20240;-83
2022/05/19 07:33:03;;;;;;;3.67;1.70;;;;;25.20;101567.00;;;;5092615;28;20226;-83
2022/05/19 07:35:30;;;;;;;3.83;1.75;;;;;25.20;101565.00;;;;5085819;28;20199;-83
2022/05/19 07:37:57;;;;;;;1.85;1.60;;;;;25.30;101560.00;;;;5088798;28;20202;-83
2022/05/19 07:40:26;;;;;;;3.30;1.60;;;;;25.40;101562.00;;;;5092796;28;20228;-83
2022/05/19 07:42:53;;;;;;;2.53;1.80;;;;;25.40;101554.00;;;;5093470;28;20213;-83
2022/05/19 07:45:21;;;;;;;2.58;2.25;;;;;25.50;101564.00;;;;5093582;28;20186;-83
2022/05/19 07:47:48;;;;;;;3.35;1.92;;;;;25.60;101554.00;;;;5092891;28;20209;-82
2022/05/19 07:50:15;;;;;;;1.92;1.45;;;;;25.60;101554.00;;;;5090015;28;20400;-82
2022/05/19 07:52:43;;;;;;;2.95;1.90;;;;;25.70;101553.00;;;;5092523;28;20222;-82
2022/05/19 07:55:10;;;;;;;2.13;1.80;;;;;25.80;101541.00;;;;5077862;28;20226;-83
2022/05/19 07:57:39;;;;;;;2.03;1.60;;;;;25.80;101539.00;;;;5085942;28;20248;-82
2022/05/19 08:00:08;;;;;;;2.88;1.77;;;;;25.90;101542.00;;;;5090696;28;20194;-82
2022/05/19 08:02:35;;;;;;;2.05;1.70;;;;;26.00;101550.00;;;;5090310;28;20243;-82
2022/05/19 08:05:04;;;;;;;1.63;1.33;;;;;26.10;101548.00;;;;5092017;28;20202;-82
2022/05/19 08:07:31;;;;;;;3.63;2.28;;;;;26.20;101538.00;;;;5086022;28;20578;-83
2022/05/19 08:15:35;;;;;;;2.28;1.92;;;;;26.50;101541.00;;;;5092119;28;20568;-84
2022/05/19 08:18:05;;;;;;;2.22;1.70;;;;;26.60;101551.00;;;;5071542;28;20206;-82
2022/05/19 08:20:33;;;;;;;2.38;1.63;;;;;26.80;101554.00;;;;5075024;28;20191;-82
2022/05/19 08:23:00;;;;;;;2.90;2.00;;;;;26.90;101555.00;;;;5071733;28;20244;-82
2022/05/19 08:25:28;;;;;;;2.65;1.90;;;;;27.00;101554.00;;;;5088944;28;20207;-82
2022/05/19 08:27:58;;;;;;;2.50;2.13;;;;;27.10;101556.00;;;;5081092;28;20856;-82
2022/05/19 08:30:26;;;;;;;1.80;1.70;;;;;27.20;101550.00;;;;5085362;28;20646;-84
2022/05/19 08:32:55;;;;;;;2.67;2.08;;;;;27.40;101551.00;;;;5070517;28;20428;-83
2022/05/19 08:35:22;;;;;;;4.68;1.80;;;;;27.50;101552.00;;;;5073007;28;20202;-83
2022/05/19 08:37:50;;;;;;;3.50;2.00;;;;;27.60;101551.00;;;;5086812;28;20202;-83
2022/05/19 08:40:20;;;;;;;3.13;2.00;;;;;27.80;101553.00;;;;5090462;28;20241;-83
2022/05/19 08:42:50;;;;;;;1.80;1.70;;;;;27.90;101559.00;;;;5090461;28;20194;-83
2022/05/19 08:45:23;;;;;;;2.08;1.88;;;;;28.00;101554.00;;;;5090920;28;20202;-84
2022/05/19 08:47:58;;;;;;;2.58;2.38;;;;;28.20;101559.00;;;;5089739;28;20221;-84
2022/05/19 08:50:33;;;;;;;3.05;2.05;;;;;28.30;101563.00;;;;5090424;28;20193;-83
2022/05/19 08:53:11;;;;;;;2.10;1.80;;;;;28.40;101556.00;;;;5090520;28;20225;-84
2022/05/19 08:55:41;;;;;;;2.15;1.95;;;;;28.50;101555.00;;;;5090473;28;20297;-83
2022/05/19 08:58:40;;;;;;;2.60;2.22;;;;;28.50;101573.00;;;;5089395;28;20199;-83
2022/05/19 09:01:20;;;;;;;2.17;1.98;;;;;28.60;101568.00;;;;5089303;28;20247;-83
2022/05/19 09:03:59;;;;;;;2.17;1.98;;;;;28.70;101568.00;;;;5090549;28;20205;-81
2022/05/19 09:07:56;;;;;;;2.17;1.98;;;;;28.80;101572.00;;;;5087241;28;20251;-81
2022/05/19 09:09:44;;;;;;;2.60;2.22;;;;;28.90;101580.00;;;;5070404;28;20281;-83
2022/05/19 09:12:19;;;;;;;3.50;2.40;;;;;28.90;101579.00;;;;5070135;28;20699;-82
2022/05/19 09:14:47;;;;;;;2.70;2.15;;;;;29.00;101576.00;;;;5070380;28;20268;-82
2022/05/19 09:17:15;;;;;;;3.90;2.72;;;;;29.00;101568.00;;;;5085251;28;20190;-82
2022/05/19 09:19:47;;;;;;;2.92;2.33;;;;;29.00;101560.00;;;;5086222;28;20213;-83
2022/05/19 09:22:17;;;;;;;2.67;2.47;;;;;29.10;101557.00;;;;5079486;28;20205;-82
2022/05/19 09:24:47;;;;;;;4.45;2.60;;;;;29.10;101558.00;;;;5069720;28;20195;-82
2022/05/19 09:27:14;;;;;;;3.08;2.78;;;;;29.20;101556.00;;;;5079922;28;20668;-83
2022/05/19 09:29:44;;;;;;;3.25;2.95;;;;;29.30;101560.00;;;;5090164;28;20213;-82
2022/05/19 09:32:18;;;;;;;2.58;2.38;;;;;29.40;101572.00;;;;5083970;28;20264;-83
2022/05/19 09:34:48;;;;;;;3.53;3.22;;;;;29.50;101566.00;;;;5070466;28;20206;-83
2022/05/19 09:37:18;;;;;;;3.38;2.95;;;;;29.60;101573.00;;;;5090109;28;20245;-84
2022/05/19 09:39:50;;;;;;;2.65;2.45;;;;;29.70;101577.00;;;;5087962;28;20305;-82
2022/05/19 09:42:21;;;;;;;4.38;2.60;;;;;29.70;101577.00;;;;5090091;28;20880;-83
2022/05/19 09:44:55;;;;;;;2.95;2.60;;;;;29.70;101583.00;;;;5090627;28;20190;-82
2022/05/19 09:47:31;;;;;;;2.92;2.70;;;;;29.60;101594.00;;;;5090034;28;20259;-82
2022/05/19 09:50:05;;;;;;;2.75;2.30;;;;;29.60;101593.00;;;;5087725;28;20189;-82
2022/05/19 09:52:33;;;;;;;3.75;2.75;;;;;29.60;101600.00;;;;5086082;28;20237;-82
2022/05/19 09:55:04;;;;;;;2.72;2.53;;;;;29.60;101598.00;;;;5072012;28;20302;-82
2022/05/19 09:57:44;;;;;;;4.18;3.30;;;;;29.50;101594.00;;;;5076789;28;20606;-82
2022/05/19 10:00:21;;;;;;;3.67;2.90;;;;;29.60;101592.00;;;;5084315;28;20195;-82
2022/05/19 10:02:55;;;;;;;3.90;3.20;;;;;29.70;101582.00;;;;5087885;28;20198;-82
2022/05/19 10:05:32;;;;;;;3.30;2.78;;;;;29.70;101573.00;;;;5087022;28;20608;-82
2022/05/19 10:08:05;;;;;;;2.85;2.50;;;;;29.80;101557.00;;;;5069655;28;20264;-83
2022/05/19 10:10:54;;;;;;;3.38;2.65;;;;;30.00;101541.00;;;;5083345;28;20297;-82
2022/05/19 10:13:28;;;;;;;3.90;3.22;;;;;30.10;101539.00;;;;5088990;28;20649;-82
2022/05/19 10:16:02;;;;;;;3.42;2.85;;;;;30.30;101534.00;;;;5084903;28;20202;-82
2022/05/19 10:18:50;;;;;;;4.40;3.13;;;;;30.40;101528.00;;;;5086937;28;20190;-81
2022/05/19 10:21:34;;;;;;;5.82;4.22;;;;;30.60;101517.00;;;;5073929;28;20286;-81
2022/05/19 10:24:26;;;;;;;3.92;3.25;;;;;30.70;101504.00;;;;5086378;28;20198;-81
2022/05/19 10:32:54;;;;;;;4.93;3.60;;;;;31.20;101486.00;;;;5068333;28;20770;-81
2022/05/19 10:35:29;;;;;;;5.85;4.45;;;;;31.30;101480.00;;;;5068578;28;20532;-81
2022/05/19 10:38:15;;;;;;;5.65;4.28;;;;;31.30;101479.00;;;;5072523;28;20657;-83
2022/05/19 10:40:57;;;;;;;4.80;4.05;;;;;31.40;101474.00;;;;5085193;28;20221;-82
2022/05/19 10:43:37;;;;;;;4.60;3.55;;;;;31.50;101488.00;;;;5088476;28;21050;-81
2022/05/19 10:46:08;;;;;;;4.32;3.90;;;;;31.70;101498.00;;;;5088883;28;20263;-81
2022/05/19 10:49:02;;;;;;;8.43;4.57;;;;;31.60;101498.00;;;;5088360;28;20247;-81
2022/05/19 10:51:42;;;;;;;5.82;4.20;;;;;31.70;101495.00;;;;5087556;28;20194;-81
2022/05/19 10:54:25;;;;;;;3.47;3.17;;;;;31.70;101508.00;;;;5088289;28;20222;-80
2022/05/19 10:57:28;;;;;;;4.40;3.83;;;;;31.60;101523.00;;;;5082688;28;20221;-81
2022/05/19 11:00:07;;;;;;;9.82;4.13;;;;;31.60;101520.00;;;;5038264;28;20661;-81
2022/05/19 11:03:02;;;;;;;4.45;3.95;;;;;31.50;101518.00;;;;5069964;28;20252;-81
2022/05/19 11:05:41;;;;;;;4.22;3.38;;;;;31.40;101517.00;;;;5084758;28;20197;-82
2022/05/19 11:08:19;;;;;;;4.68;3.10;;;;;31.30;101515.00;;;;5087196;28;20251;-82
2022/05/19 11:10:55;;;;;;;4.97;3.75;;;;;31.20;101515.00;;;;5076086;28;20556;-82
2022/05/19 11:13:39;;;;;;;4.03;3.55;;;;;31.10;101516.00;;;;5069496;28;20225;-82
2022/05/19 11:16:16;;;;;;;4.18;3.38;;;;;31.00;101525.00;;;;5085179;28;20198;-82
2022/05/19 11:18:51;;;;;;;6.68;3.28;;;;;30.90;101516.00;;;;5083261;28;20295;-82
2022/05/19 11:21:24;;;;;;;3.75;3.38;;;;;30.80;101516.00;;;;5082636;28;20208;-82
2022/05/19 11:23:59;;;;;;;5.70;3.97;;;;;30.70;101499.00;;;;5087831;28;20213;-83
2022/05/19 11:26:31;;;;;;;3.65;3.25;;;;;30.60;101493.00;;;;5088351;28;20198;-82
2022/05/19 11:29:22;;;;;;;3.97;3.13;;;;;30.40;101496.00;;;;5087871;28;20199;-82
2022/05/19 11:31:57;;;;;;;5.43;3.90;;;;;30.30;101510.00;;;;5082077;28;20315;-82
2022/05/19 11:34:31;;;;;;;3.90;3.50;;;;;30.20;101524.00;;;;5087276;28;20829;-83
2022/05/19 11:37:06;;;;;;;5.35;3.80;;;;;30.10;101541.00;;;;5079768;28;20202;-82
2022/05/19 11:39:40;;;;;;;5.32;3.92;;;;;29.90;101547.00;;;;5076072;28;20565;-82
2022/05/19 11:42:20;;;;;;;4.93;4.35;;;;;29.80;101543.00;;;;5077813;28;20194;-81
2022/05/19 11:44:47;;;;;;;5.93;4.47;;;;;29.80;101559.00;;;;5088222;28;20218;-81
2022/05/19 11:55:12;;;;;;;5.47;4.90;;;;;29.60;101565.00;;;;5069736;28;20206;-83
2022/05/19 11:55:52;;;;;;;3.47;1.58;;;;;29.10;101694.00;;;;5080092;28;20614;-80
2022/05/19 11:58:21;;;;;;;3.05;1.70;;;;;28.80;101735.00;;;;5081862;28;20195;-80
2022/05/19 12:00:57;;;;;;;4.72;1.73;;;;;28.30;101747.00;;;;5077446;28;20285;-81
2022/05/19 12:03:31;;;;;;;5.50;1.60;;;;;27.90;101731.00;;;;5070159;28;20217;-86
2022/05/19 12:06:01;;;;;;;3.22;1.30;;;;;27.50;101747.00;;;;5073240;28;20221;-85
2022/05/19 12:08:35;;;;;;;4.88;1.45;;;;;27.10;101741.00;;;;5085700;28;20242;-84
2022/05/19 12:11:18;;;;;;;5.40;1.48;;;;;26.60;101732.00;;;;5087963;28;20195;-85
2022/05/19 12:13:49;;;;;;;4.28;1.98;;;;;26.40;101706.00;;;;5080901;28;20271;-84
2022/05/19 12:16:24;;;;;;;5.25;1.70;;;;;26.20;101702.00;;;;5088898;28;20201;-85
2022/05/19 12:19:04;;;;;;;2.63;1.80;;;;;25.90;101706.00;;;;5091704;28;20210;-84
2022/05/19 12:21:49;;;;;;;1.67;1.48;;;;;25.80;101691.00;;;;5091317;28;20201;-84
2022/05/19 12:24:17;;;;;;;2.80;2.25;;;;;25.60;101701.00;;;;5091912;28;20216;-84
2022/05/19 12:26:57;;;;;;;4.68;2.63;;;;;25.40;101706.00;;;;5090980;28;20469;-84
2022/05/19 12:29:33;;;;;;;3.45;2.00;;;;;25.30;101724.00;;;;5075605;28;20199;-84
2022/05/19 12:32:09;;;;;;;5.20;1.83;;;;;25.30;101732.00;;;;5071415;28;20684;-84
2022/05/19 12:34:45;;;;;;;2.53;1.90;;;;;25.20;101707.00;;;;5091299;28;20221;-83
2022/05/19 12:37:33;;;;;;;2.97;2.22;;;;;25.10;101691.00;;;;5091813;28;20264;-84
2022/05/19 12:40:31;;;;;;;3.58;2.17;;;;;25.00;101691.00;;;;5089246;28;20311;-84
2022/05/19 12:43:31;;;;;;;4.28;2.20;;;;;24.90;101684.00;;;;5090319;28;20228;-84
2022/05/19 12:46:00;;;;;;;3.17;2.22;;;;;25.00;101658.00;;;;5046417;28;20217;-83
2022/05/19 12:48:48;;;;;;;3.53;2.30;;;;;24.80;101625.00;;;;5091468;28;20198;-84
2022/05/19 12:51:20;;;;;;;3.00;2.47;;;;;24.90;101608.00;;;;5083710;28;20893;-83